Arnolds Park, Iowa
Current Conditions -  °F | °C
As of 5:53 PM on Sunday 23 Nov 2014 (Local Time) from KSPW Reporting Station
Overcast Overcast  
Wind Chill: 30°   Ceiling: 12000
Heat Index: 39°   Visibility: 10mi
Dew Point: 31°   Wind: 18mph
Humidity: 73%   Direction: 310°NW
Pressure: 29.49"   Gusts: 24mph
Location:  43.37°N, 95.12°W
Report Text: KSPW 232353Z AUTO 31016G21KT 10SM SCT100 OVC120 04/M01 A2949 RMK AO2 SLP991 60000 T00391006 10094 20039 51013 TSNO
Loading
Personal Weather Stations






























Interactive Weather Map New forecast layout! Learn more

10-Day Weather Forecast

Advertisements
Track Severe Weather on mobile